Time;durP1;ratioP1;P1;durP2;ratioP2;P2;SDS_P1;SDS_P2;PMS_P1;PMS_P2;Temp;Humidity;BMP_temperature;BMP_pressure;BME280_temperature;BME280_humidity;BME280_pressure;Samples;Min_cycle;Max_cycle;Signal;HPM_P1;HPM_P2
2022/04/12 00:00:20;;;;;;;7.10;6.13;;;8.60;98.90;;;;;;5083943;28;20180;-60
2022/04/12 00:02:46;;;;;;;6.17;5.53;;;8.60;99.60;;;;;;5088897;28;20219;-60
2022/04/12 00:05:12;;;;;;;7.85;6.57;;;8.90;99.90;;;;;;5088057;28;20287;-60
2022/04/12 00:07:39;;;;;;;6.50;5.90;;;8.90;99.90;;;;;;5089394;28;20380;-61
2022/04/12 00:10:05;;;;;;;8.48;6.55;;;9.00;99.90;;;;;;5083057;28;20702;-58
2022/04/12 00:12:31;;;;;;;9.52;6.93;;;8.90;99.90;;;;;;5089854;28;20606;-60
2022/04/12 00:14:56;;;;;;;6.93;6.20;;;8.80;99.90;;;;;;5088771;28;20180;-60
2022/04/12 00:20:07;;;;;;;6.45;5.90;;;8.70;99.90;;;;;;5089660;28;20257;-59
2022/04/12 00:22:33;;;;;;;6.13;5.07;;;8.90;99.90;;;;;;5088499;28;20681;-59
2022/04/12 00:25:01;;;;;;;11.43;5.63;;;8.70;99.90;;;;;;5087820;28;20245;-59
2022/04/12 00:27:27;;;;;;;7.70;6.13;;;9.00;99.90;;;;;;5089365;28;20229;-59
2022/04/12 00:29:53;;;;;;;6.20;5.60;;;8.20;99.90;;;;;;5087443;28;20216;-59
2022/04/12 00:32:19;;;;;;;7.25;5.30;;;8.70;99.90;;;;;;5084042;28;20448;-59
2022/04/12 00:34:45;;;;;;;6.63;5.63;;;8.40;99.90;;;;;;5086629;28;20188;-59
2022/04/12 00:37:10;;;;;;;10.50;7.10;;;8.60;99.90;;;;;;5090219;28;20188;-58
2022/04/12 00:39:37;;;;;;;6.50;5.90;;;8.40;99.90;;;;;;5083473;28;20218;-60
2022/04/12 00:42:04;;;;;;;6.70;5.25;;;8.80;99.90;;;;;;5089275;28;20184;-60
2022/04/12 00:44:29;;;;;;;8.48;6.70;;;8.60;99.90;;;;;;5089781;28;20192;-59
2022/04/12 00:46:55;;;;;;;5.80;5.23;;;8.70;99.90;;;;;;5080231;28;20594;-60
2022/04/12 00:49:23;;;;;;;7.30;6.50;;;8.70;99.90;;;;;;5082355;28;20193;-60
2022/04/12 00:51:49;;;;;;;9.50;6.05;;;8.50;99.90;;;;;;5086846;28;20176;-60
2022/04/12 00:54:17;;;;;;;6.65;5.95;;;8.90;99.90;;;;;;5064325;28;21341;-61
2022/04/12 00:56:43;;;;;;;8.65;6.03;;;8.50;99.90;;;;;;5083960;28;20250;-62
2022/04/12 00:59:09;;;;;;;7.83;5.97;;;7.90;99.90;;;;;;5086374;28;20641;-62
2022/04/12 01:01:34;;;;;;;6.60;5.27;;;8.30;99.90;;;;;;5083234;28;20184;-62
2022/04/12 01:04:00;;;;;;;5.70;5.20;;;8.30;99.90;;;;;;5095664;28;20215;-61
2022/04/12 01:06:25;;;;;;;7.00;6.30;;;8.50;99.90;;;;;;5089297;28;20705;-61
2022/04/12 01:08:52;;;;;;;6.50;5.80;;;8.20;99.90;;;;;;5081745;28;20539;-61
2022/04/12 01:11:17;;;;;;;7.75;6.50;;;8.20;99.90;;;;;;5082772;28;20188;-61
2022/04/12 01:13:43;;;;;;;8.23;6.13;;;8.00;99.90;;;;;;5088681;28;20206;-61
2022/04/12 01:16:08;;;;;;;6.67;5.90;;;8.00;99.90;;;;;;5065370;28;20188;-61
2022/04/12 01:18:34;;;;;;;6.97;6.33;;;8.00;99.90;;;;;;5081173;28;20275;-61
2022/04/12 01:21:01;;;;;;;8.73;6.28;;;8.20;99.90;;;;;;5090491;28;20553;-61
2022/04/12 01:23:59;;;;;;;7.93;6.80;;;8.20;99.90;;;;;;5086572;28;20307;-61
2022/04/12 01:26:25;;;;;;;6.18;5.57;;;8.20;99.90;;;;;;5080278;28;20552;-61
2022/04/12 01:28:51;;;;;;;7.47;6.27;;;8.00;99.90;;;;;;5084321;28;20199;-61
2022/04/12 01:31:16;;;;;;;7.53;5.90;;;8.00;99.90;;;;;;5084420;28;20645;-61
2022/04/12 01:33:42;;;;;;;8.27;6.70;;;8.20;99.90;;;;;;5087037;28;20200;-60
2022/04/12 01:36:08;;;;;;;7.40;5.80;;;7.90;99.90;;;;;;5090121;28;20192;-61
2022/04/12 01:38:33;;;;;;;7.00;6.20;;;7.70;99.90;;;;;;5088549;28;20645;-61
2022/04/12 01:40:59;;;;;;;7.67;6.60;;;7.90;99.90;;;;;;5087036;28;20184;-61
2022/04/12 01:43:25;;;;;;;6.40;5.80;;;7.80;99.90;;;;;;5088047;28;20261;-61
2022/04/12 01:45:50;;;;;;;6.35;5.63;;;7.50;99.90;;;;;;5091209;28;20265;-61
2022/04/12 01:48:16;;;;;;;6.80;6.10;;;8.00;99.90;;;;;;5088143;28;20685;-61
2022/04/12 01:50:41;;;;;;;7.27;6.57;;;7.90;99.90;;;;;;5089943;28;20645;-61
2022/04/12 01:53:07;;;;;;;7.17;6.47;;;7.60;99.90;;;;;;5088051;28;20605;-61
2022/04/12 01:55:33;;;;;;;7.30;5.80;;;7.80;99.90;;;;;;5091507;28;20207;-61
2022/04/12 01:57:58;;;;;;;6.83;5.80;;;7.70;99.90;;;;;;5093084;28;20238;-61
2022/04/12 02:00:24;;;;;;;6.10;5.50;;;7.90;99.90;;;;;;5089630;28;20638;-61
2022/04/12 02:02:49;;;;;;;7.60;6.00;;;7.70;99.90;;;;;;5088961;28;20227;-60
2022/04/12 02:05:15;;;;;;;7.00;5.90;;;7.50;99.90;;;;;;5085460;28;20269;-61
2022/04/12 02:07:43;;;;;;;7.33;6.60;;;7.90;99.90;;;;;;5088101;28;20184;-61
2022/04/12 02:10:11;;;;;;;6.75;5.75;;;7.70;99.90;;;;;;5093967;28;20213;-61
2022/04/12 02:12:36;;;;;;;6.43;5.68;;;7.80;99.90;;;;;;5086996;28;20223;-61
2022/04/12 02:15:03;;;;;;;7.70;6.40;;;7.70;99.90;;;;;;5083992;28;20230;-61
2022/04/12 02:17:29;;;;;;;7.40;5.55;;;7.90;99.90;;;;;;5086671;28;20276;-60
2022/04/12 02:19:54;;;;;;;8.50;6.63;;;7.50;99.90;;;;;;5087891;28;20267;-61
2022/04/12 02:22:20;;;;;;;7.50;5.93;;;7.70;99.90;;;;;;5088833;28;20457;-60
2022/04/12 02:24:45;;;;;;;6.77;5.90;;;7.50;99.90;;;;;;5084813;28;20196;-60
2022/04/12 02:27:11;;;;;;;6.33;5.70;;;7.40;99.90;;;;;;5088625;28;20618;-60
2022/04/12 02:29:37;;;;;;;6.20;5.60;;;7.70;99.90;;;;;;5087672;28;20208;-60
2022/04/12 02:32:03;;;;;;;6.80;6.10;;;7.50;99.90;;;;;;5090032;28;20535;-61
2022/04/12 02:34:28;;;;;;;7.00;5.97;;;7.50;99.90;;;;;;5085450;28;20226;-60
2022/04/12 02:36:54;;;;;;;6.67;6.00;;;7.60;99.90;;;;;;5089496;28;20443;-60
2022/04/12 02:39:19;;;;;;;6.97;5.70;;;7.30;99.90;;;;;;5087480;28;20267;-61
2022/04/12 02:41:45;;;;;;;7.30;5.97;;;7.30;99.90;;;;;;5090808;28;20204;-61
2022/04/12 02:44:11;;;;;;;6.93;6.23;;;7.30;99.90;;;;;;5066368;28;20227;-61
2022/04/12 02:46:37;;;;;;;7.10;6.40;;;6.80;99.90;;;;;;5089949;28;21006;-61
2022/04/12 02:49:02;;;;;;;7.65;6.38;;;7.70;99.90;;;;;;5088976;28;20192;-61
2022/04/12 02:51:28;;;;;;;6.20;5.60;;;7.00;99.90;;;;;;5084444;28;20180;-60
2022/04/12 02:53:54;;;;;;;6.37;5.77;;;6.70;99.90;;;;;;5087429;28;20211;-60
2022/04/12 02:56:19;;;;;;;7.20;6.10;;;6.50;99.90;;;;;;5072833;28;20173;-61
2022/04/12 02:58:45;;;;;;;6.67;6.00;;;7.00;99.90;;;;;;5089974;28;20190;-61
2022/04/12 03:01:10;;;;;;;6.77;6.10;;;7.00;99.90;;;;;;5089106;28;20259;-61
2022/04/12 03:03:36;;;;;;;8.63;7.73;;;7.00;99.90;;;;;;5089955;28;20229;-61
2022/04/12 03:06:02;;;;;;;7.57;6.83;;;6.80;99.90;;;;;;5088825;28;20283;-61
2022/04/12 03:08:27;;;;;;;6.70;6.00;;;7.00;99.90;;;;;;5090489;28;20748;-61
2022/04/12 03:10:53;;;;;;;9.97;7.40;;;6.80;99.90;;;;;;5088811;28;20430;-61
2022/04/12 03:13:18;;;;;;;8.50;7.00;;;6.60;99.90;;;;;;5089823;28;20580;-62
2022/04/12 03:15:44;;;;;;;7.60;6.33;;;6.70;99.90;;;;;;5086116;28;20207;-61
2022/04/12 03:18:10;;;;;;;7.57;6.57;;;7.10;99.90;;;;;;5090267;28;20504;-61
2022/04/12 03:20:36;;;;;;;6.72;5.88;;;6.80;99.90;;;;;;5080072;28;20184;-60
2022/04/12 03:23:02;;;;;;;6.53;5.90;;;6.90;99.90;;;;;;5091573;28;20215;-60
2022/04/12 03:25:27;;;;;;;7.63;6.20;;;6.80;99.90;;;;;;5081558;28;20216;-61
2022/04/12 03:27:53;;;;;;;7.30;6.37;;;6.90;99.90;;;;;;5072270;28;20230;-61
2022/04/12 03:30:19;;;;;;;8.67;7.10;;;6.80;99.90;;;;;;5087449;28;20690;-61
2022/04/12 03:32:44;;;;;;;9.87;6.40;;;6.90;99.90;;;;;;5091323;28;20211;-61
2022/04/12 03:35:10;;;;;;;7.33;6.20;;;6.70;99.90;;;;;;5088074;28;20524;-61
2022/04/12 03:37:36;;;;;;;7.33;5.90;;;7.00;99.90;;;;;;5093560;28;20218;-61
2022/04/12 03:40:02;;;;;;;8.47;7.40;;;7.30;99.90;;;;;;5087022;28;20917;-61
2022/04/12 03:42:28;;;;;;;13.77;9.90;;;6.80;99.90;;;;;;5090425;28;20180;-60
2022/04/12 03:44:54;;;;;;;8.90;7.00;;;6.60;99.90;;;;;;5088334;28;20225;-61
2022/04/12 03:47:19;;;;;;;7.63;6.57;;;6.60;99.90;;;;;;5083478;28;20218;-61
2022/04/12 03:49:45;;;;;;;7.23;6.53;;;6.70;99.90;;;;;;5085544;28;20577;-61
2022/04/12 03:52:10;;;;;;;9.63;6.83;;;6.50;99.90;;;;;;5071366;28;20173;-60
2022/04/12 03:54:36;;;;;;;9.07;7.33;;;6.90;99.90;;;;;;5084871;28;20200;-60
2022/04/12 03:57:02;;;;;;;10.70;6.85;;;6.80;99.90;;;;;;5087290;28;20271;-60
2022/04/12 03:59:28;;;;;;;9.88;7.00;;;6.80;99.90;;;;;;5088629;28;20184;-60
2022/04/12 04:01:54;;;;;;;7.60;6.83;;;7.10;99.90;;;;;;5087843;28;20192;-61
2022/04/12 04:04:19;;;;;;;8.70;6.70;;;6.80;99.90;;;;;;5087133;28;20553;-60
2022/04/12 04:06:45;;;;;;;8.37;6.73;;;6.80;99.90;;;;;;5082741;28;20180;-60
2022/04/12 04:09:11;;;;;;;7.17;6.47;;;6.70;99.90;;;;;;5079947;28;20478;-60
2022/04/12 04:11:40;;;;;;;8.00;6.53;;;6.70;99.90;;;;;;5090759;28;20437;-60
2022/04/12 04:14:07;;;;;;;9.10;6.90;;;6.60;99.90;;;;;;5081327;28;20463;-61
2022/04/12 04:16:32;;;;;;;7.80;6.57;;;6.70;99.90;;;;;;5088358;28;20188;-60
2022/04/12 04:18:58;;;;;;;8.70;7.37;;;6.60;99.90;;;;;;5089509;28;20185;-61
2022/04/12 04:21:24;;;;;;;11.03;8.30;;;6.00;99.90;;;;;;5085594;28;20188;-61
2022/04/12 04:23:49;;;;;;;8.90;7.50;;;6.60;99.90;;;;;;5072238;28;20243;-60
2022/04/12 04:26:15;;;;;;;8.83;6.77;;;6.60;99.90;;;;;;5090535;28;20265;-60
2022/04/12 04:28:43;;;;;;;8.30;6.80;;;6.50;99.90;;;;;;5091636;28;20460;-61
2022/04/12 04:31:09;;;;;;;7.85;7.05;;;6.60;99.90;;;;;;5082959;28;20644;-61
2022/04/12 04:33:35;;;;;;;7.57;6.87;;;6.70;99.90;;;;;;5085711;28;20256;-61
2022/04/12 04:36:00;;;;;;;11.50;7.00;;;6.30;99.90;;;;;;5083869;28;20253;-60
2022/04/12 04:38:26;;;;;;;8.50;7.03;;;6.80;99.90;;;;;;5088681;28;20311;-60
2022/04/12 04:40:51;;;;;;;8.43;7.50;;;7.00;99.90;;;;;;5085784;28;20184;-60
2022/04/12 04:43:17;;;;;;;8.03;7.23;;;6.90;99.90;;;;;;5088987;28;20701;-61
2022/04/12 04:45:46;;;;;;;7.87;6.50;;;6.90;99.90;;;;;;5080970;28;20192;-61
2022/04/12 04:48:12;;;;;;;7.97;6.80;;;6.80;99.90;;;;;;5083881;28;20195;-62
2022/04/12 04:50:37;;;;;;;7.68;6.75;;;6.70;99.90;;;;;;5087798;28;20176;-62
2022/04/12 04:53:05;;;;;;;7.83;6.53;;;6.70;99.90;;;;;;5086925;28;20572;-62
2022/04/12 04:55:33;;;;;;;7.30;6.60;;;6.80;99.90;;;;;;5083897;28;20225;-62
2022/04/12 04:57:59;;;;;;;7.53;6.82;;;6.30;99.90;;;;;;5084309;28;20264;-62
2022/04/12 05:00:29;;;;;;;11.43;7.03;;;6.80;99.90;;;;;;5084824;28;20263;-62
2022/04/12 05:02:55;;;;;;;9.60;7.47;;;6.90;99.90;;;;;;5084910;28;20216;-62
2022/04/12 05:05:21;;;;;;;7.88;7.07;;;6.10;99.90;;;;;;5083095;28;20587;-59
2022/04/12 05:07:49;;;;;;;9.45;7.18;;;6.60;99.90;;;;;;5087512;28;20261;-61
2022/04/12 05:10:41;;;;;;;9.60;7.13;;;6.60;99.90;;;;;;5085080;28;20212;-61
2022/04/12 05:13:06;;;;;;;8.82;7.93;;;6.50;99.90;;;;;;5086235;28;20249;-61
2022/04/12 05:15:32;;;;;;;12.10;7.33;;;6.10;99.90;;;;;;5087588;28;20214;-61
2022/04/12 05:17:58;;;;;;;9.17;7.80;;;6.70;99.90;;;;;;5089691;28;20173;-61
2022/04/12 05:20:25;;;;;;;9.70;7.43;;;6.80;99.90;;;;;;5095507;28;20173;-61
2022/04/12 05:22:51;;;;;;;9.20;7.63;;;6.70;99.90;;;;;;5088444;28;20203;-61
2022/04/12 05:25:17;;;;;;;8.63;7.80;;;6.90;99.90;;;;;;5089528;28;20436;-60
2022/04/12 05:27:43;;;;;;;8.77;7.93;;;6.80;99.90;;;;;;5074947;28;20176;-59
2022/04/12 05:30:10;;;;;;;9.43;7.97;;;7.10;99.90;;;;;;5089206;28;20338;-58
2022/04/12 05:32:37;;;;;;;10.07;8.27;;;7.00;99.90;;;;;;5092770;28;20196;-59
2022/04/12 05:35:05;;;;;;;8.90;8.00;;;7.20;99.90;;;;;;5088852;28;20637;-59
2022/04/12 05:37:32;;;;;;;8.93;7.25;;;6.90;99.90;;;;;;5069927;28;20190;-58
2022/04/12 05:39:58;;;;;;;10.30;7.28;;;6.60;99.90;;;;;;5089747;28;20365;-57
2022/04/12 05:42:24;;;;;;;7.80;7.10;;;7.50;99.90;;;;;;5092745;28;20254;-60
2022/04/12 05:44:50;;;;;;;7.80;7.00;;;7.40;99.90;;;;;;5091995;28;20263;-65
2022/04/12 05:47:15;;;;;;;9.70;7.80;;;7.70;99.90;;;;;;5080298;28;20632;-68
2022/04/12 05:49:41;;;;;;;11.50;8.10;;;7.60;99.90;;;;;;5081663;28;20212;-61
2022/04/12 05:52:08;;;;;;;8.97;8.07;;;8.20;99.90;;;;;;5078419;28;20188;-67
2022/04/12 05:54:34;;;;;;;9.77;7.82;;;7.60;99.90;;;;;;5082694;28;20197;-67
2022/04/12 05:56:59;;;;;;;12.40;9.73;;;7.60;99.90;;;;;;5090570;28;20214;-68
2022/04/12 05:59:25;;;;;;;9.37;8.47;;;7.90;99.90;;;;;;5080782;28;20177;-68
2022/04/12 06:01:50;;;;;;;9.73;8.83;;;7.30;99.90;;;;;;5067407;28;20179;-67
2022/04/12 06:04:16;;;;;;;17.23;8.50;;;8.20;99.90;;;;;;5086171;28;20730;-65
2022/04/12 06:06:42;;;;;;;8.73;7.93;;;8.30;99.90;;;;;;5089319;28;20195;-61
2022/04/12 06:09:08;;;;;;;8.30;7.50;;;8.60;99.90;;;;;;5087065;28;20261;-60
2022/04/12 06:11:34;;;;;;;8.23;7.35;;;8.80;99.90;;;;;;5092138;28;21141;-63
2022/04/12 06:14:00;;;;;;;9.75;8.75;;;9.20;99.90;;;;;;5087247;28;20311;-61
2022/04/12 06:16:26;;;;;;;9.00;7.70;;;9.70;99.90;;;;;;5076993;28;20264;-61
2022/04/12 06:18:51;;;;;;;8.17;6.30;;;10.00;99.60;;;;;;5086452;28;20185;-59
2022/04/12 06:21:17;;;;;;;7.30;6.60;;;9.90;98.70;;;;;;5087621;28;20181;-61
2022/04/12 06:23:43;;;;;;;8.00;7.20;;;10.70;97.30;;;;;;5087990;28;20201;-64
2022/04/12 06:26:09;;;;;;;8.80;7.70;;;10.60;96.10;;;;;;5082681;28;20685;-64
2022/04/12 06:28:35;;;;;;;9.03;8.13;;;10.70;96.00;;;;;;5080566;28;20205;-63
2022/04/12 06:31:01;;;;;;;9.17;7.50;;;11.00;96.20;;;;;;5066928;28;20183;-63
2022/04/12 06:33:27;;;;;;;8.25;7.45;;;11.20;95.70;;;;;;5083232;28;20512;-63
2022/04/12 06:35:53;;;;;;;8.70;7.43;;;11.50;94.90;;;;;;5089293;28;20258;-64
2022/04/12 06:38:19;;;;;;;7.93;7.13;;;11.90;94.10;;;;;;5087760;28;20590;-64
2022/04/12 06:40:45;;;;;;;9.03;7.27;;;12.10;93.40;;;;;;5084968;28;20260;-65
2022/04/12 06:43:12;;;;;;;8.75;7.85;;;12.70;92.80;;;;;;5086647;28;20822;-62
2022/04/12 06:45:41;;;;;;;8.48;7.53;;;13.80;91.30;;;;;;5078104;28;20226;-62
2022/04/12 06:48:07;;;;;;;7.80;7.10;;;14.70;87.40;;;;;;5082294;28;20328;-64
2022/04/12 06:50:34;;;;;;;9.93;6.85;;;15.30;85.40;;;;;;5080959;28;20263;-63
2022/04/12 06:53:05;;;;;;;8.75;7.60;;;16.10;81.50;;;;;;5083838;28;20214;-62
2022/04/12 06:55:31;;;;;;;7.47;6.78;;;17.00;78.50;;;;;;5082700;28;20192;-63
2022/04/12 06:57:57;;;;;;;8.20;7.40;;;18.10;72.90;;;;;;5081591;28;20192;-67
2022/04/12 07:00:23;;;;;;;6.53;5.93;;;19.10;69.60;;;;;;5088130;28;20328;-67
2022/04/12 07:02:49;;;;;;;9.43;6.85;;;20.30;64.50;;;;;;5090489;28;20564;-64
2022/04/12 07:05:15;;;;;;;9.07;8.27;;;20.60;61.00;;;;;;5081200;28;20309;-65
2022/04/12 07:07:41;;;;;;;7.40;6.10;;;20.70;60.00;;;;;;5084826;28;20503;-64
2022/04/12 07:10:10;;;;;;;7.63;6.90;;;20.50;57.60;;;;;;5085079;28;20216;-62
2022/04/12 07:12:36;;;;;;;6.33;5.73;;;21.50;57.20;;;;;;5078322;28;20212;-65
2022/04/12 07:15:02;;;;;;;6.47;5.93;;;21.80;55.10;;;;;;5080450;28;20459;-65
2022/04/12 07:17:28;;;;;;;6.78;6.28;;;21.10;54.60;;;;;;5092813;28;20437;-62
2022/04/12 07:19:53;;;;;;;11.03;6.03;;;21.50;55.30;;;;;;5086027;28;20247;-60
2022/04/12 07:22:19;;;;;;;7.80;5.60;;;21.60;55.10;;;;;;5079563;28;20192;-60
2022/04/12 07:24:44;;;;;;;6.60;6.00;;;21.80;54.80;;;;;;5082602;28;20332;-61
2022/04/12 07:27:10;;;;;;;7.90;7.20;;;22.90;53.00;;;;;;5087331;28;20187;-59
2022/04/12 07:29:36;;;;;;;7.30;6.60;;;23.60;51.60;;;;;;5078824;28;20201;-61
2022/04/12 07:32:02;;;;;;;7.40;6.80;;;24.40;50.00;;;;;;5081605;28;20571;-64
2022/04/12 07:34:27;;;;;;;6.73;6.20;;;23.50;49.50;;;;;;5084666;28;20201;-60
2022/04/12 07:36:56;;;;;;;6.27;5.67;;;22.20;50.20;;;;;;5083381;28;20476;-65
2022/04/12 07:39:23;;;;;;;8.53;6.23;;;21.80;51.30;;;;;;5087102;28;20328;-65
2022/04/12 07:41:49;;;;;;;9.17;8.30;;;21.20;52.60;;;;;;5084716;28;20524;-65
2022/04/12 07:44:15;;;;;;;6.40;5.80;;;21.70;51.70;;;;;;5088010;28;20481;-62
2022/04/12 07:46:41;;;;;;;7.13;6.53;;;21.60;51.20;;;;;;5084948;28;21022;-63
2022/04/12 07:49:07;;;;;;;6.63;6.00;;;22.70;51.10;;;;;;5088224;28;20561;-62
2022/04/12 07:51:32;;;;;;;7.77;6.73;;;22.50;49.90;;;;;;5076885;28;20176;-62
2022/04/12 07:53:58;;;;;;;6.90;6.30;;;22.30;50.20;;;;;;5086381;28;20518;-66
2022/04/12 07:56:24;;;;;;;6.47;5.87;;;22.30;50.70;;;;;;5089044;28;20695;-66
2022/04/12 07:58:50;;;;;;;7.63;6.30;;;22.80;50.60;;;;;;5083497;28;20640;-65
2022/04/12 08:01:15;;;;;;;7.17;6.50;;;23.40;49.10;;;;;;5077376;28;20438;-59
2022/04/12 08:03:41;;;;;;;6.90;6.17;;;23.30;48.70;;;;;;5069055;28;20238;-61
2022/04/12 08:06:08;;;;;;;7.50;5.80;;;22.90;48.70;;;;;;5083490;28;20197;-60
2022/04/12 08:08:33;;;;;;;6.50;5.90;;;22.80;50.40;;;;;;5084282;28;20196;-63
2022/04/12 08:10:59;;;;;;;5.77;5.17;;;21.60;50.30;;;;;;5073113;28;20433;-65
2022/04/12 08:13:25;;;;;;;6.60;6.00;;;22.00;51.00;;;;;;5079684;28;20203;-64
2022/04/12 08:15:50;;;;;;;6.33;5.73;;;21.90;50.60;;;;;;5080828;28;20204;-68
2022/04/12 08:18:16;;;;;;;8.00;6.10;;;22.00;50.40;;;;;;5073188;28;20748;-66
2022/04/12 08:20:42;;;;;;;8.13;5.97;;;22.10;49.90;;;;;;5079486;28;20189;-63
2022/04/12 08:23:07;;;;;;;5.57;5.00;;;22.30;50.70;;;;;;5078736;28;20212;-60
2022/04/12 08:25:34;;;;;;;6.70;5.10;;;22.70;48.30;;;;;;5086309;28;20183;-63
2022/04/12 08:27:59;;;;;;;5.63;5.13;;;22.00;49.70;;;;;;5074567;28;20176;-63
2022/04/12 08:30:25;;;;;;;5.20;4.70;;;22.60;49.20;;;;;;5087741;28;20604;-62
2022/04/12 08:32:50;;;;;;;10.77;9.67;;;23.40;49.00;;;;;;5089601;28;20211;-60
2022/04/12 08:35:16;;;;;;;6.70;6.10;;;24.20;47.70;;;;;;5079258;28;20652;-59
2022/04/12 08:37:43;;;;;;;5.93;5.00;;;24.70;46.90;;;;;;5081030;28;20190;-60
2022/04/12 08:40:09;;;;;;;5.27;4.77;;;24.90;45.70;;;;;;5078298;28;20187;-60
2022/04/12 08:42:36;;;;;;;6.80;6.00;;;25.20;45.40;;;;;;5087040;28;20802;-64
2022/04/12 08:45:06;;;;;;;7.50;5.80;;;25.40;44.70;;;;;;5086922;28;20790;-67
2022/04/12 08:47:35;;;;;;;6.17;5.60;;;25.40;44.90;;;;;;5080548;28;20433;-67
2022/04/12 08:50:03;;;;;;;7.23;5.13;;;25.70;44.20;;;;;;5082308;28;20870;-64
2022/04/12 08:52:30;;;;;;;6.23;5.63;;;25.90;43.60;;;;;;5070458;28;20452;-63
2022/04/12 08:54:56;;;;;;;7.47;6.43;;;25.40;43.10;;;;;;5081326;28;20477;-64
2022/04/12 08:57:21;;;;;;;5.50;4.93;;;25.00;44.20;;;;;;5080545;28;20470;-65
2022/04/12 08:59:48;;;;;;;4.90;4.50;;;24.90;44.20;;;;;;5088394;28;20498;-64
2022/04/12 09:02:13;;;;;;;5.47;4.97;;;25.40;43.90;;;;;;5081082;28;20656;-64
2022/04/12 09:04:39;;;;;;;5.27;4.77;;;26.00;42.70;;;;;;5083282;28;20453;-64
2022/04/12 09:07:10;;;;;;;6.50;5.17;;;24.90;42.60;;;;;;5089076;28;20272;-63
2022/04/12 09:09:38;;;;;;;4.00;3.70;;;24.70;43.60;;;;;;5082810;28;20539;-61
2022/04/12 09:12:06;;;;;;;5.83;3.80;;;24.80;41.90;;;;;;5078513;28;20437;-64
2022/04/12 09:14:42;;;;;;;4.17;3.77;;;24.60;41.90;;;;;;5085316;28;20574;-63
2022/04/12 09:17:10;;;;;;;4.53;3.53;;;24.50;42.60;;;;;;5078833;28;20477;-62
2022/04/12 09:19:48;;;;;;;4.07;3.63;;;24.10;42.70;;;;;;5086980;28;20468;-61
2022/04/12 09:22:19;;;;;;;4.03;3.43;;;24.30;43.10;;;;;;5077580;28;20445;-64
2022/04/12 09:24:50;;;;;;;3.67;3.37;;;25.00;42.90;;;;;;5089016;28;20464;-63
2022/04/12 09:27:17;;;;;;;3.67;3.37;;;25.00;43.00;;;;;;5076928;28;20444;-61
2022/04/12 09:29:49;;;;;;;3.80;3.50;;;25.00;43.70;;;;;;5084210;28;20511;-61
2022/04/12 09:32:18;;;;;;;3.73;3.40;;;25.70;42.40;;;;;;5073163;28;20439;-61
2022/04/12 09:34:45;;;;;;;4.47;3.37;;;26.70;41.30;;;;;;5082170;28;20447;-62
2022/04/12 09:37:26;;;;;;;4.33;3.50;;;27.20;40.30;;;;;;5084089;28;20513;-62
2022/04/12 09:39:54;;;;;;;4.40;3.53;;;26.40;40.30;;;;;;5082464;28;20557;-67
2022/04/12 09:42:35;;;;;;;4.30;3.90;;;26.30;41.00;;;;;;5079634;28;20853;-61
2022/04/12 09:45:03;;;;;;;3.03;2.77;;;25.60;42.10;;;;;;5083324;28;20524;-62
2022/04/12 09:47:31;;;;;;;4.57;2.80;;;26.40;40.10;;;;;;5085201;28;20777;-63
2022/04/12 09:49:56;;;;;;;3.87;2.93;;;26.60;39.30;;;;;;5074023;28;20577;-64
2022/04/12 09:52:22;;;;;;;3.57;3.27;;;27.00;38.70;;;;;;5083508;28;20446;-65
2022/04/12 09:54:48;;;;;;;3.10;2.80;;;26.90;38.00;;;;;;5079953;28;20180;-65
2022/04/12 09:57:15;;;;;;;3.20;2.90;;;26.60;38.50;;;;;;5079198;28;20462;-64
2022/04/12 09:59:42;;;;;;;3.00;2.70;;;26.50;38.20;;;;;;5083197;28;20184;-68
2022/04/12 10:02:08;;;;;;;3.17;2.60;;;27.00;38.20;;;;;;5057921;28;20446;-67
2022/04/12 10:04:36;;;;;;;3.40;2.63;;;26.30;38.20;;;;;;5071809;28;20511;-65
2022/04/12 10:07:03;;;;;;;3.37;2.80;;;25.80;39.00;;;;;;5086536;28;20437;-66
2022/04/12 10:09:30;;;;;;;3.50;3.20;;;25.90;39.50;;;;;;5080788;28;21029;-67
2022/04/12 10:11:56;;;;;;;3.27;2.80;;;25.30;40.10;;;;;;5076470;28;20445;-69
2022/04/12 10:14:22;;;;;;;3.10;2.80;;;25.50;40.30;;;;;;5090390;28;20513;-67
2022/04/12 10:16:47;;;;;;;3.07;2.77;;;24.90;40.60;;;;;;5086703;28;20448;-64
2022/04/12 10:19:14;;;;;;;4.40;2.97;;;25.60;40.80;;;;;;5076060;28;20266;-67
2022/04/12 10:21:40;;;;;;;2.97;2.33;;;26.20;40.20;;;;;;5083758;28;20173;-62
2022/04/12 10:24:07;;;;;;;3.10;2.47;;;26.20;38.80;;;;;;5081140;28;20526;-62
2022/04/12 10:26:33;;;;;;;2.73;2.53;;;26.00;38.70;;;;;;5094050;28;20200;-62
2022/04/12 10:29:05;;;;;;;5.03;2.43;;;25.90;39.30;;;;;;5091392;28;20458;-66
2022/04/12 10:31:31;;;;;;;2.40;2.20;;;26.40;38.00;;;;;;5080055;28;20506;-66
2022/04/12 10:34:15;;;;;;;2.87;2.63;;;26.10;38.10;;;;;;5087066;28;20462;-61
2022/04/12 10:37:07;;;;;;;2.73;2.53;;;26.30;37.90;;;;;;5076305;28;20470;-62
2022/04/12 10:39:45;;;;;;;3.63;3.03;;;26.40;37.90;;;;;;5091806;28;20863;-64
2022/04/12 10:42:14;;;;;;;2.60;2.30;;;26.40;37.30;;;;;;5079920;28;20437;-61
2022/04/12 10:44:48;;;;;;;3.00;2.40;;;26.40;37.60;;;;;;5080086;28;20445;-62
2022/04/12 10:47:31;;;;;;;4.83;2.73;;;26.30;37.50;;;;;;5074105;28;20874;-61
2022/04/12 10:50:06;;;;;;;3.10;2.80;;;26.40;37.50;;;;;;5091727;28;20456;-61
2022/04/12 10:52:42;;;;;;;3.03;2.83;;;26.10;37.70;;;;;;5091248;28;20449;-61
2022/04/12 10:55:14;;;;;;;17.30;15.70;;;26.50;38.10;;;;;;5061884;28;20440;-61
2022/04/12 10:57:40;;;;;;;12.10;11.00;;;26.60;38.20;;;;;;5089371;28;20429;-62
2022/04/12 11:00:19;;;;;;;3.83;2.90;;;27.20;38.20;;;;;;5090776;28;20986;-62
2022/04/12 11:02:55;;;;;;;3.70;2.80;;;26.80;38.10;;;;;;5079677;28;20468;-60
2022/04/12 11:05:36;;;;;;;2.80;2.50;;;27.60;36.70;;;;;;5091099;28;20525;-60
2022/04/12 11:08:40;;;;;;;2.70;2.50;;;27.50;36.50;;;;;;5090895;28;20425;-61
2022/04/12 11:11:06;;;;;;;5.13;3.50;;;27.60;35.70;;;;;;5080014;28;20544;-60
2022/04/12 11:13:34;;;;;;;3.07;2.67;;;27.40;36.40;;;;;;5077476;28;20454;-60
2022/04/12 11:16:01;;;;;;;2.93;2.60;;;27.40;36.20;;;;;;5084781;28;20173;-59
2022/04/12 11:18:45;;;;;;;4.63;3.80;;;27.00;36.50;;;;;;5090612;28;20547;-61
2022/04/12 11:21:11;;;;;;;4.37;2.70;;;26.80;37.90;;;;;;5072276;28;20511;-60
2022/04/12 11:23:51;;;;;;;4.87;2.47;;;26.70;38.00;;;;;;5086574;28;20467;-61
2022/04/12 11:26:38;;;;;;;3.97;2.50;;;26.00;37.90;;;;;;5089832;28;20251;-61
2022/04/12 11:29:13;;;;;;;5.13;2.10;;;25.90;38.40;;;;;;5072402;28;20456;-61
2022/04/12 11:31:50;;;;;;;3.20;2.30;;;25.40;38.60;;;;;;5082050;28;20465;-62
2022/04/12 11:34:17;;;;;;;2.47;2.27;;;25.60;37.90;;;;;;5060293;28;20471;-62
2022/04/12 11:36:54;;;;;;;3.00;2.70;;;25.90;37.90;;;;;;5084404;28;20454;-61
2022/04/12 11:39:25;;;;;;;2.10;1.90;;;25.40;38.00;;;;;;5097733;28;20434;-62
2022/04/12 11:41:59;;;;;;;2.40;2.20;;;25.70;38.10;;;;;;5095825;28;20451;-60
2022/04/12 11:44:24;;;;;;;4.77;2.63;;;25.70;37.50;;;;;;5085670;28;20554;-67
2022/04/12 11:47:03;;;;;;;2.57;1.90;;;25.40;38.50;;;;;;5075647;28;20537;-65
2022/04/12 11:49:42;;;;;;;3.07;2.50;;;25.20;38.90;;;;;;5087292;28;20186;-59
2022/04/12 11:52:17;;;;;;;3.10;1.73;;;25.20;39.50;;;;;;5083498;28;20430;-61
2022/04/12 11:54:48;;;;;;;2.37;2.17;;;24.70;39.50;;;;;;5076057;28;20936;-60
2022/04/12 11:57:14;;;;;;;2.07;1.97;;;25.20;39.50;;;;;;5090701;28;20516;-62
2022/04/12 11:59:50;;;;;;;2.20;2.00;;;25.30;40.10;;;;;;5070147;28;20528;-60
2022/04/12 12:02:21;;;;;;;2.50;2.30;;;25.30;39.50;;;;;;5081049;28;20634;-59
2022/04/12 12:04:52;;;;;;;2.03;1.83;;;24.90;40.00;;;;;;5085233;28;20986;-60
2022/04/12 12:07:18;;;;;;;2.37;2.17;;;25.00;40.20;;;;;;5077388;28;20443;-63
2022/04/12 12:10:11;;;;;;;2.23;2.00;;;24.80;40.20;;;;;;5071135;28;20467;-63
2022/04/12 12:12:47;;;;;;;4.80;2.43;;;24.90;40.50;;;;;;5086083;28;20475;-63
2022/04/12 12:15:15;;;;;;;2.20;2.00;;;25.00;41.10;;;;;;5072848;28;20448;-66
2022/04/12 12:17:44;;;;;;;2.37;2.17;;;24.90;40.10;;;;;;5087754;28;20436;-65
2022/04/12 12:20:10;;;;;;;2.40;2.17;;;25.00;40.40;;;;;;5076457;28;20893;-68
2022/04/12 12:22:37;;;;;;;2.40;1.93;;;24.90;40.70;;;;;;5083722;28;20554;-70
2022/04/12 12:25:03;;;;;;;2.90;2.50;;;25.10;41.00;;;;;;5096736;28;20503;-68
2022/04/12 12:27:35;;;;;;;2.70;2.50;;;25.20;42.60;;;;;;5083253;28;20805;-68
2022/04/12 12:30:08;;;;;;;2.40;2.20;;;25.30;41.40;;;;;;5087528;28;20495;-64
2022/04/12 12:32:35;;;;;;;4.63;2.47;;;25.20;40.80;;;;;;5069747;28;20521;-69
2022/04/12 12:35:06;;;;;;;2.03;1.83;;;25.20;41.10;;;;;;5088917;28;20571;-61
2022/04/12 12:37:32;;;;;;;3.50;2.20;;;25.20;41.50;;;;;;5088003;28;20431;-66
2022/04/12 12:39:58;;;;;;;2.10;1.90;;;25.10;41.40;;;;;;5081364;28;20533;-61
2022/04/12 12:42:24;;;;;;;2.33;1.97;;;25.00;41.50;;;;;;5079975;28;20203;-60
2022/04/12 12:44:49;;;;;;;2.43;2.23;;;24.70;41.80;;;;;;5079112;28;20526;-60
2022/04/12 12:47:15;;;;;;;2.10;1.80;;;24.40;42.10;;;;;;5083694;28;20204;-61
2022/04/12 12:49:41;;;;;;;2.43;2.13;;;24.40;42.30;;;;;;5077935;28;20205;-61
2022/04/12 12:52:10;;;;;;;2.90;1.70;;;24.90;42.30;;;;;;5082314;28;20475;-61
2022/04/12 12:54:37;;;;;;;1.60;1.50;;;25.00;41.70;;;;;;5072967;28;20483;-60